sensor_id;sensor_type;location;lat;lon;timestamp;P1;durP1;ratioP1;P2;durP2;ratioP2
67861;SDS011;54665;51.462;6.698;2022-09-12T00:01:14;129.57;;;27.25;;
67861;SDS011;54665;51.462;6.698;2022-09-12T00:03:41;135.68;;;28.75;;
67861;SDS011;54665;51.462;6.698;2022-09-12T00:06:18;139.63;;;27.20;;
67861;SDS011;54665;51.462;6.698;2022-09-12T00:08:47;140.40;;;27.67;;
67861;SDS011;54665;51.462;6.698;2022-09-12T00:11:12;121.57;;;26.97;;
67861;SDS011;54665;51.462;6.698;2022-09-12T00:13:38;136.18;;;27.08;;
67861;SDS011;54665;51.462;6.698;2022-09-12T00:16:05;129.32;;;27.52;;
67861;SDS011;54665;51.462;6.698;2022-09-12T00:18:31;136.60;;;27.23;;
67861;SDS011;54665;51.462;6.698;2022-09-12T00:21:00;148.63;;;29.00;;
67861;SDS011;54665;51.462;6.698;2022-09-12T00:23:28;160.05;;;29.00;;
67861;SDS011;54665;51.462;6.698;2022-09-12T00:25:54;160.27;;;29.13;;
67861;SDS011;54665;51.462;6.698;2022-09-12T00:28:19;142.23;;;28.90;;
67861;SDS011;54665;51.462;6.698;2022-09-12T00:30:45;142.97;;;27.63;;
67861;SDS011;54665;51.462;6.698;2022-09-12T00:33:12;160.55;;;27.92;;
67861;SDS011;54665;51.462;6.698;2022-09-12T00:35:41;156.07;;;27.58;;
67861;SDS011;54665;51.462;6.698;2022-09-12T00:38:11;147.97;;;27.60;;
67861;SDS011;54665;51.462;6.698;2022-09-12T00:40:38;142.10;;;27.05;;
67861;SDS011;54665;51.462;6.698;2022-09-12T00:43:03;167.82;;;29.15;;
67861;SDS011;54665;51.462;6.698;2022-09-12T00:45:29;169.93;;;29.03;;
67861;SDS011;54665;51.462;6.698;2022-09-12T00:47:55;154.63;;;28.70;;
67861;SDS011;54665;51.462;6.698;2022-09-12T00:50:23;167.35;;;28.85;;
67861;SDS011;54665;51.462;6.698;2022-09-12T00:52:51;155.82;;;27.85;;
67861;SDS011;54665;51.462;6.698;2022-09-12T00:55:23;154.85;;;27.65;;
67861;SDS011;54665;51.462;6.698;2022-09-12T01:00:24;145.37;;;27.27;;
67861;SDS011;54665;51.462;6.698;2022-09-12T01:02:54;154.02;;;28.25;;
67861;SDS011;54665;51.462;6.698;2022-09-12T01:05:26;160.52;;;27.85;;
67861;SDS011;54665;51.462;6.698;2022-09-12T01:07:53;147.52;;;26.83;;
67861;SDS011;54665;51.462;6.698;2022-09-12T01:10:20;135.45;;;26.55;;
67861;SDS011;54665;51.462;6.698;2022-09-12T01:12:48;146.10;;;26.70;;
67861;SDS011;54665;51.462;6.698;2022-09-12T01:15:14;148.98;;;26.95;;
67861;SDS011;54665;51.462;6.698;2022-09-12T01:17:43;162.90;;;28.30;;
67861;SDS011;54665;51.462;6.698;2022-09-12T01:20:27;161.30;;;27.70;;
67861;SDS011;54665;51.462;6.698;2022-09-12T01:26:15;156.52;;;27.38;;
67861;SDS011;54665;51.462;6.698;2022-09-12T01:31:58;148.23;;;26.70;;
67861;SDS011;54665;51.462;6.698;2022-09-12T01:34:48;143.43;;;26.33;;
67861;SDS011;54665;51.462;6.698;2022-09-12T01:43:03;142.18;;;27.33;;
67861;SDS011;54665;51.462;6.698;2022-09-12T01:45:32;140.70;;;25.77;;
67861;SDS011;54665;51.462;6.698;2022-09-12T01:48:19;144.10;;;26.15;;
67861;SDS011;54665;51.462;6.698;2022-09-12T01:51:00;152.45;;;26.65;;
67861;SDS011;54665;51.462;6.698;2022-09-12T01:53:35;149.93;;;26.60;;
67861;SDS011;54665;51.462;6.698;2022-09-12T01:56:10;148.02;;;26.13;;
67861;SDS011;54665;51.462;6.698;2022-09-12T01:58:50;155.77;;;26.07;;
67861;SDS011;54665;51.462;6.698;2022-09-12T02:01:32;150.88;;;26.13;;
67861;SDS011;54665;51.462;6.698;2022-09-12T02:04:05;139.93;;;26.02;;
67861;SDS011;54665;51.462;6.698;2022-09-12T02:06:45;161.50;;;27.50;;
67861;SDS011;54665;51.462;6.698;2022-09-12T02:09:25;192.27;;;27.92;;
67861;SDS011;54665;51.462;6.698;2022-09-12T02:11:55;163.07;;;27.17;;
67861;SDS011;54665;51.462;6.698;2022-09-12T02:14:24;154.35;;;26.52;;
67861;SDS011;54665;51.462;6.698;2022-09-12T02:17:00;155.70;;;26.08;;
67861;SDS011;54665;51.462;6.698;2022-09-12T02:19:36;171.57;;;27.15;;
67861;SDS011;54665;51.462;6.698;2022-09-12T02:22:08;206.68;;;28.88;;
67861;SDS011;54665;51.462;6.698;2022-09-12T02:24:39;188.60;;;27.87;;
67861;SDS011;54665;51.462;6.698;2022-09-12T02:27:10;156.13;;;26.27;;
67861;SDS011;54665;51.462;6.698;2022-09-12T02:29:38;172.25;;;27.35;;
67861;SDS011;54665;51.462;6.698;2022-09-12T02:32:04;170.52;;;27.33;;
67861;SDS011;54665;51.462;6.698;2022-09-12T02:39:52;159.30;;;27.05;;
67861;SDS011;54665;51.462;6.698;2022-09-12T02:42:19;153.27;;;25.63;;
67861;SDS011;54665;51.462;6.698;2022-09-12T02:44:46;159.00;;;27.13;;
67861;SDS011;54665;51.462;6.698;2022-09-12T02:47:14;165.37;;;27.10;;
67861;SDS011;54665;51.462;6.698;2022-09-12T02:50:01;159.63;;;27.48;;
67861;SDS011;54665;51.462;6.698;2022-09-12T02:52:29;181.15;;;28.20;;
67861;SDS011;54665;51.462;6.698;2022-09-12T02:54:55;179.27;;;28.30;;
67861;SDS011;54665;51.462;6.698;2022-09-12T02:57:22;197.57;;;29.55;;
67861;SDS011;54665;51.462;6.698;2022-09-12T02:59:48;197.25;;;29.08;;
67861;SDS011;54665;51.462;6.698;2022-09-12T03:02:22;181.52;;;28.80;;
67861;SDS011;54665;51.462;6.698;2022-09-12T03:04:58;165.68;;;27.42;;
67861;SDS011;54665;51.462;6.698;2022-09-12T03:18:07;176.20;;;28.60;;
67861;SDS011;54665;51.462;6.698;2022-09-12T03:23:46;165.27;;;27.35;;
67861;SDS011;54665;51.462;6.698;2022-09-12T03:26:19;176.23;;;29.65;;
67861;SDS011;54665;51.462;6.698;2022-09-12T03:28:51;173.40;;;28.85;;
67861;SDS011;54665;51.462;6.698;2022-09-12T03:31:19;181.00;;;27.35;;
67861;SDS011;54665;51.462;6.698;2022-09-12T03:33:45;125.70;;;25.10;;
67861;SDS011;54665;51.462;6.698;2022-09-12T03:36:28;165.23;;;27.20;;
67861;SDS011;54665;51.462;6.698;2022-09-12T03:42:16;158.88;;;26.17;;
67861;SDS011;54665;51.462;6.698;2022-09-12T03:44:44;175.85;;;26.67;;
67861;SDS011;54665;51.462;6.698;2022-09-12T03:47:17;151.63;;;27.03;;
67861;SDS011;54665;51.462;6.698;2022-09-12T03:49:42;158.10;;;26.75;;
67861;SDS011;54665;51.462;6.698;2022-09-12T03:52:08;155.63;;;26.85;;
67861;SDS011;54665;51.462;6.698;2022-09-12T03:54:33;165.37;;;26.80;;
67861;SDS011;54665;51.462;6.698;2022-09-12T03:56:58;160.80;;;27.03;;
67861;SDS011;54665;51.462;6.698;2022-09-12T03:59:24;154.70;;;25.67;;
67861;SDS011;54665;51.462;6.698;2022-09-12T04:01:49;164.30;;;25.90;;
67861;SDS011;54665;51.462;6.698;2022-09-12T04:04:15;145.37;;;25.73;;
67861;SDS011;54665;51.462;6.698;2022-09-12T04:06:40;134.20;;;24.73;;
67861;SDS011;54665;51.462;6.698;2022-09-12T04:09:07;128.77;;;24.50;;
67861;SDS011;54665;51.462;6.698;2022-09-12T04:11:32;145.57;;;24.43;;
67861;SDS011;54665;51.462;6.698;2022-09-12T04:13:57;131.87;;;23.70;;
67861;SDS011;54665;51.462;6.698;2022-09-12T04:16:23;135.87;;;24.27;;
67861;SDS011;54665;51.462;6.698;2022-09-12T04:18:48;139.40;;;25.17;;
67861;SDS011;54665;51.462;6.698;2022-09-12T04:21:15;144.30;;;24.58;;
67861;SDS011;54665;51.462;6.698;2022-09-12T04:23:42;143.27;;;25.07;;
67861;SDS011;54665;51.462;6.698;2022-09-12T04:26:08;141.68;;;24.80;;
67861;SDS011;54665;51.462;6.698;2022-09-12T04:28:34;132.35;;;23.85;;
67861;SDS011;54665;51.462;6.698;2022-09-12T04:31:05;130.97;;;24.03;;
67861;SDS011;54665;51.462;6.698;2022-09-12T04:33:36;123.82;;;23.58;;
67861;SDS011;54665;51.462;6.698;2022-09-12T04:36:03;128.80;;;24.67;;
67861;SDS011;54665;51.462;6.698;2022-09-12T04:38:29;130.63;;;23.37;;
67861;SDS011;54665;51.462;6.698;2022-09-12T04:40:55;118.82;;;22.95;;
67861;SDS011;54665;51.462;6.698;2022-09-12T04:43:21;113.60;;;22.43;;
67861;SDS011;54665;51.462;6.698;2022-09-12T04:45:46;122.93;;;22.70;;
67861;SDS011;54665;51.462;6.698;2022-09-12T04:48:12;126.97;;;22.67;;
67861;SDS011;54665;51.462;6.698;2022-09-12T04:50:37;130.30;;;23.60;;
67861;SDS011;54665;51.462;6.698;2022-09-12T04:53:02;129.57;;;23.40;;
67861;SDS011;54665;51.462;6.698;2022-09-12T04:55:28;120.75;;;22.77;;
67861;SDS011;54665;51.462;6.698;2022-09-12T04:57:53;123.53;;;22.47;;
67861;SDS011;54665;51.462;6.698;2022-09-12T05:00:19;113.27;;;22.27;;
67861;SDS011;54665;51.462;6.698;2022-09-12T05:02:44;110.77;;;22.40;;
67861;SDS011;54665;51.462;6.698;2022-09-12T05:05:10;112.53;;;22.52;;
67861;SDS011;54665;51.462;6.698;2022-09-12T05:07:35;111.50;;;21.37;;
67861;SDS011;54665;51.462;6.698;2022-09-12T05:10:01;106.85;;;21.23;;
67861;SDS011;54665;51.462;6.698;2022-09-12T05:12:28;114.32;;;21.65;;
67861;SDS011;54665;51.462;6.698;2022-09-12T05:14:55;97.03;;;20.35;;
67861;SDS011;54665;51.462;6.698;2022-09-12T05:17:20;92.77;;;19.90;;
67861;SDS011;54665;51.462;6.698;2022-09-12T05:19:46;102.23;;;20.13;;
67861;SDS011;54665;51.462;6.698;2022-09-12T05:22:12;107.60;;;20.48;;
67861;SDS011;54665;51.462;6.698;2022-09-12T05:24:37;86.10;;;18.93;;
67861;SDS011;54665;51.462;6.698;2022-09-12T05:27:03;91.13;;;19.25;;
67861;SDS011;54665;51.462;6.698;2022-09-12T05:29:29;89.97;;;18.80;;
67861;SDS011;54665;51.462;6.698;2022-09-12T05:31:55;90.93;;;19.95;;
67861;SDS011;54665;51.462;6.698;2022-09-12T05:34:20;93.90;;;20.27;;
67861;SDS011;54665;51.462;6.698;2022-09-12T05:36:46;79.90;;;19.13;;
67861;SDS011;54665;51.462;6.698;2022-09-12T05:39:14;73.97;;;18.17;;
67861;SDS011;54665;51.462;6.698;2022-09-12T05:41:39;68.65;;;17.55;;
67861;SDS011;54665;51.462;6.698;2022-09-12T05:44:05;70.83;;;17.40;;
67861;SDS011;54665;51.462;6.698;2022-09-12T05:46:34;69.85;;;17.40;;
67861;SDS011;54665;51.462;6.698;2022-09-12T05:49:02;65.15;;;16.67;;
67861;SDS011;54665;51.462;6.698;2022-09-12T05:51:32;61.60;;;16.33;;
67861;SDS011;54665;51.462;6.698;2022-09-12T05:53:59;60.08;;;16.70;;
67861;SDS011;54665;51.462;6.698;2022-09-12T05:56:28;57.22;;;16.30;;
67861;SDS011;54665;51.462;6.698;2022-09-12T05:58:59;52.72;;;16.02;;
67861;SDS011;54665;51.462;6.698;2022-09-12T06:01:26;55.75;;;15.15;;
67861;SDS011;54665;51.462;6.698;2022-09-12T06:03:53;50.17;;;15.53;;
67861;SDS011;54665;51.462;6.698;2022-09-12T06:06:21;49.65;;;15.05;;
67861;SDS011;54665;51.462;6.698;2022-09-12T06:08:49;51.28;;;14.98;;
67861;SDS011;54665;51.462;6.698;2022-09-12T06:11:17;50.63;;;15.35;;
67861;SDS011;54665;51.462;6.698;2022-09-12T06:13:44;43.90;;;14.20;;
67861;SDS011;54665;51.462;6.698;2022-09-12T06:16:14;37.73;;;14.30;;
67861;SDS011;54665;51.462;6.698;2022-09-12T06:18:48;43.25;;;15.23;;
67861;SDS011;54665;51.462;6.698;2022-09-12T06:21:14;42.97;;;14.35;;
67861;SDS011;54665;51.462;6.698;2022-09-12T06:23:40;41.93;;;14.70;;
67861;SDS011;54665;51.462;6.698;2022-09-12T06:26:07;36.67;;;13.63;;
67861;SDS011;54665;51.462;6.698;2022-09-12T06:28:35;36.35;;;13.75;;
67861;SDS011;54665;51.462;6.698;2022-09-12T06:31:03;36.55;;;13.63;;
67861;SDS011;54665;51.462;6.698;2022-09-12T06:33:33;34.10;;;13.60;;
67861;SDS011;54665;51.462;6.698;2022-09-12T06:36:06;35.53;;;13.37;;
67861;SDS011;54665;51.462;6.698;2022-09-12T06:38:34;35.20;;;13.35;;
67861;SDS011;54665;51.462;6.698;2022-09-12T06:41:02;30.73;;;13.25;;
67861;SDS011;54665;51.462;6.698;2022-09-12T06:43:32;36.90;;;14.13;;
67861;SDS011;54665;51.462;6.698;2022-09-12T06:45:58;37.65;;;14.82;;
67861;SDS011;54665;51.462;6.698;2022-09-12T06:48:24;42.10;;;14.70;;
67861;SDS011;54665;51.462;6.698;2022-09-12T06:50:57;43.80;;;14.90;;
67861;SDS011;54665;51.462;6.698;2022-09-12T06:53:24;38.67;;;14.27;;
67861;SDS011;54665;51.462;6.698;2022-09-12T06:55:56;31.80;;;13.68;;
67861;SDS011;54665;51.462;6.698;2022-09-12T06:58:23;35.83;;;13.52;;
67861;SDS011;54665;51.462;6.698;2022-09-12T07:00:49;34.00;;;14.30;;
67861;SDS011;54665;51.462;6.698;2022-09-12T07:03:14;31.60;;;13.93;;
67861;SDS011;54665;51.462;6.698;2022-09-12T07:05:40;32.63;;;14.43;;
67861;SDS011;54665;51.462;6.698;2022-09-12T07:08:05;32.63;;;14.77;;
67861;SDS011;54665;51.462;6.698;2022-09-12T07:10:30;29.33;;;14.23;;
67861;SDS011;54665;51.462;6.698;2022-09-12T07:12:56;30.33;;;14.33;;
67861;SDS011;54665;51.462;6.698;2022-09-12T07:15:23;31.07;;;14.47;;
67861;SDS011;54665;51.462;6.698;2022-09-12T07:17:49;29.50;;;14.48;;
67861;SDS011;54665;51.462;6.698;2022-09-12T07:20:14;28.83;;;13.53;;
67861;SDS011;54665;51.462;6.698;2022-09-12T07:22:40;31.08;;;13.18;;
67861;SDS011;54665;51.462;6.698;2022-09-12T07:25:06;32.67;;;14.30;;
67861;SDS011;54665;51.462;6.698;2022-09-12T07:27:31;30.08;;;13.48;;
67861;SDS011;54665;51.462;6.698;2022-09-12T07:29:57;28.33;;;13.60;;
67861;SDS011;54665;51.462;6.698;2022-09-12T07:32:22;26.50;;;12.80;;
67861;SDS011;54665;51.462;6.698;2022-09-12T07:34:48;28.48;;;12.65;;
67861;SDS011;54665;51.462;6.698;2022-09-12T07:37:14;25.33;;;12.43;;
67861;SDS011;54665;51.462;6.698;2022-09-12T07:39:39;28.15;;;12.32;;
67861;SDS011;54665;51.462;6.698;2022-09-12T07:42:05;25.53;;;11.97;;
67861;SDS011;54665;51.462;6.698;2022-09-12T07:44:31;24.23;;;11.73;;
67861;SDS011;54665;51.462;6.698;2022-09-12T07:46:56;22.10;;;10.63;;
67861;SDS011;54665;51.462;6.698;2022-09-12T07:49:22;24.13;;;11.70;;
67861;SDS011;54665;51.462;6.698;2022-09-12T07:51:48;24.00;;;11.77;;
67861;SDS011;54665;51.462;6.698;2022-09-12T07:54:13;21.67;;;11.30;;
67861;SDS011;54665;51.462;6.698;2022-09-12T07:56:38;25.00;;;11.10;;
67861;SDS011;54665;51.462;6.698;2022-09-12T08:02:37;23.45;;;10.80;;
67861;SDS011;54665;51.462;6.698;2022-09-12T08:05:03;30.70;;;11.50;;
67861;SDS011;54665;51.462;6.698;2022-09-12T08:07:28;22.50;;;10.93;;
67861;SDS011;54665;51.462;6.698;2022-09-12T08:09:54;23.30;;;10.93;;
67861;SDS011;54665;51.462;6.698;2022-09-12T08:12:19;20.37;;;10.50;;
67861;SDS011;54665;51.462;6.698;2022-09-12T08:14:44;20.17;;;10.63;;
67861;SDS011;54665;51.462;6.698;2022-09-12T08:17:10;19.27;;;10.32;;
67861;SDS011;54665;51.462;6.698;2022-09-12T08:19:36;19.17;;;9.30;;
67861;SDS011;54665;51.462;6.698;2022-09-12T08:22:02;21.30;;;10.02;;
67861;SDS011;54665;51.462;6.698;2022-09-12T08:24:28;17.35;;;9.38;;
67861;SDS011;54665;51.462;6.698;2022-09-12T08:26:54;17.37;;;9.00;;
67861;SDS011;54665;51.462;6.698;2022-09-12T08:29:19;15.13;;;8.80;;
67861;SDS011;54665;51.462;6.698;2022-09-12T08:31:45;13.80;;;8.13;;
67861;SDS011;54665;51.462;6.698;2022-09-12T08:34:10;15.55;;;8.60;;
67861;SDS011;54665;51.462;6.698;2022-09-12T08:36:36;15.50;;;8.40;;
67861;SDS011;54665;51.462;6.698;2022-09-12T08:39:03;15.37;;;8.20;;
67861;SDS011;54665;51.462;6.698;2022-09-12T08:44:05;14.23;;;7.72;;
67861;SDS011;54665;51.462;6.698;2022-09-12T08:54:57;17.77;;;8.18;;
67861;SDS011;54665;51.462;6.698;2022-09-12T08:57:24;15.13;;;8.55;;
67861;SDS011;54665;51.462;6.698;2022-09-12T08:59:49;14.93;;;7.93;;
67861;SDS011;54665;51.462;6.698;2022-09-12T09:05:18;13.95;;;7.82;;
67861;SDS011;54665;51.462;6.698;2022-09-12T09:07:51;14.57;;;8.27;;
67861;SDS011;54665;51.462;6.698;2022-09-12T09:13:19;15.50;;;8.18;;
67861;SDS011;54665;51.462;6.698;2022-09-12T09:16:33;15.25;;;8.02;;
67861;SDS011;54665;51.462;6.698;2022-09-12T09:19:04;14.63;;;7.70;;
67861;SDS011;54665;51.462;6.698;2022-09-12T09:24:21;16.08;;;8.85;;
67861;SDS011;54665;51.462;6.698;2022-09-12T09:26:53;16.25;;;8.85;;
67861;SDS011;54665;51.462;6.698;2022-09-12T09:29:25;13.88;;;8.57;;
67861;SDS011;54665;51.462;6.698;2022-09-12T09:31:55;16.35;;;8.98;;
67861;SDS011;54665;51.462;6.698;2022-09-12T09:34:25;18.63;;;9.03;;
67861;SDS011;54665;51.462;6.698;2022-09-12T09:44:49;13.43;;;7.93;;
67861;SDS011;54665;51.462;6.698;2022-09-12T09:47:17;11.60;;;7.70;;
67861;SDS011;54665;51.462;6.698;2022-09-12T09:49:43;12.45;;;7.65;;
67861;SDS011;54665;51.462;6.698;2022-09-12T09:52:10;12.30;;;7.38;;
67861;SDS011;54665;51.462;6.698;2022-09-12T09:57:06;12.73;;;7.67;;
67861;SDS011;54665;51.462;6.698;2022-09-12T10:05:48;12.57;;;6.33;;
67861;SDS011;54665;51.462;6.698;2022-09-12T10:08:20;10.38;;;6.18;;
67861;SDS011;54665;51.462;6.698;2022-09-12T10:10:58;8.75;;;5.65;;
67861;SDS011;54665;51.462;6.698;2022-09-12T10:13:54;9.32;;;5.70;;
67861;SDS011;54665;51.462;6.698;2022-09-12T10:16:47;8.32;;;5.65;;
67861;SDS011;54665;51.462;6.698;2022-09-12T10:19:20;8.33;;;5.83;;
67861;SDS011;54665;51.462;6.698;2022-09-12T10:21:58;8.35;;;5.50;;
67861;SDS011;54665;51.462;6.698;2022-09-12T10:24:35;7.63;;;5.18;;
67861;SDS011;54665;51.462;6.698;2022-09-12T10:29:52;8.35;;;5.40;;
67861;SDS011;54665;51.462;6.698;2022-09-12T10:32:22;9.50;;;4.80;;
67861;SDS011;54665;51.462;6.698;2022-09-12T10:34:53;9.18;;;5.30;;
67861;SDS011;54665;51.462;6.698;2022-09-12T10:39:56;8.10;;;5.07;;
67861;SDS011;54665;51.462;6.698;2022-09-12T10:42:40;6.80;;;5.18;;
67861;SDS011;54665;51.462;6.698;2022-09-12T10:45:16;7.33;;;4.80;;
67861;SDS011;54665;51.462;6.698;2022-09-12T10:47:59;9.38;;;5.05;;
67861;SDS011;54665;51.462;6.698;2022-09-12T10:50:39;8.02;;;4.28;;
67861;SDS011;54665;51.462;6.698;2022-09-12T10:56:04;6.40;;;4.40;;
67861;SDS011;54665;51.462;6.698;2022-09-12T11:07:13;8.10;;;4.40;;
67861;SDS011;54665;51.462;6.698;2022-09-12T11:10:02;6.03;;;4.20;;
67861;SDS011;54665;51.462;6.698;2022-09-12T11:12:40;7.93;;;4.23;;
67861;SDS011;54665;51.462;6.698;2022-09-12T11:41:02;5.33;;;3.77;;
67861;SDS011;54665;51.462;6.698;2022-09-12T11:43:38;6.05;;;4.00;;
67861;SDS011;54665;51.462;6.698;2022-09-12T11:49:18;7.05;;;4.40;;
67861;SDS011;54665;51.462;6.698;2022-09-12T11:51:56;6.70;;;3.95;;
67861;SDS011;54665;51.462;6.698;2022-09-12T11:54:37;5.80;;;3.50;;
67861;SDS011;54665;51.462;6.698;2022-09-12T12:02:11;7.50;;;3.90;;
67861;SDS011;54665;51.462;6.698;2022-09-12T12:04:50;6.25;;;4.07;;
67861;SDS011;54665;51.462;6.698;2022-09-12T12:07:26;9.07;;;4.10;;
67861;SDS011;54665;51.462;6.698;2022-09-12T12:10:02;7.38;;;4.30;;
67861;SDS011;54665;51.462;6.698;2022-09-12T12:12:29;6.50;;;3.67;;
67861;SDS011;54665;51.462;6.698;2022-09-12T12:14:55;5.43;;;3.38;;
67861;SDS011;54665;51.462;6.698;2022-09-12T12:17:23;3.95;;;3.17;;
67861;SDS011;54665;51.462;6.698;2022-09-12T12:19:56;6.13;;;3.20;;
67861;SDS011;54665;51.462;6.698;2022-09-12T12:22:24;3.65;;;2.90;;
67861;SDS011;54665;51.462;6.698;2022-09-12T12:24:54;4.97;;;3.15;;
67861;SDS011;54665;51.462;6.698;2022-09-12T12:32:58;5.07;;;3.33;;
67861;SDS011;54665;51.462;6.698;2022-09-12T12:35:43;4.47;;;3.17;;
67861;SDS011;54665;51.462;6.698;2022-09-12T12:43:42;3.88;;;2.90;;
67861;SDS011;54665;51.462;6.698;2022-09-12T12:46:11;3.77;;;2.90;;
67861;SDS011;54665;51.462;6.698;2022-09-12T12:53:48;3.53;;;2.70;;
67861;SDS011;54665;51.462;6.698;2022-09-12T12:56:34;4.28;;;2.97;;
67861;SDS011;54665;51.462;6.698;2022-09-12T12:59:10;3.70;;;2.77;;
67861;SDS011;54665;51.462;6.698;2022-09-12T13:01:49;5.05;;;2.80;;
67861;SDS011;54665;51.462;6.698;2022-09-12T13:04:19;3.33;;;2.88;;
67861;SDS011;54665;51.462;6.698;2022-09-12T13:07:04;5.18;;;2.90;;
67861;SDS011;54665;51.462;6.698;2022-09-12T13:09:42;3.17;;;2.65;;
67861;SDS011;54665;51.462;6.698;2022-09-12T13:14:49;4.90;;;2.40;;
67861;SDS011;54665;51.462;6.698;2022-09-12T13:17:28;4.00;;;2.70;;
67861;SDS011;54665;51.462;6.698;2022-09-12T13:20:04;3.72;;;2.65;;
67861;SDS011;54665;51.462;6.698;2022-09-12T13:22:42;4.10;;;2.72;;
67861;SDS011;54665;51.462;6.698;2022-09-12T13:30:36;4.00;;;2.90;;
67861;SDS011;54665;51.462;6.698;2022-09-12T13:33:14;3.25;;;2.70;;
67861;SDS011;54665;51.462;6.698;2022-09-12T13:43:46;4.57;;;3.20;;
67861;SDS011;54665;51.462;6.698;2022-09-12T13:46:13;4.15;;;2.80;;
67861;SDS011;54665;51.462;6.698;2022-09-12T13:48:42;5.25;;;3.30;;
67861;SDS011;54665;51.462;6.698;2022-09-12T13:51:12;5.30;;;3.43;;
67861;SDS011;54665;51.462;6.698;2022-09-12T13:53:45;3.75;;;3.15;;
67861;SDS011;54665;51.462;6.698;2022-09-12T13:56:18;4.53;;;3.10;;
67861;SDS011;54665;51.462;6.698;2022-09-12T13:58:52;4.05;;;3.22;;
67861;SDS011;54665;51.462;6.698;2022-09-12T14:01:20;4.05;;;3.30;;
67861;SDS011;54665;51.462;6.698;2022-09-12T14:03:48;6.13;;;3.20;;
67861;SDS011;54665;51.462;6.698;2022-09-12T14:06:46;6.00;;;3.35;;
67861;SDS011;54665;51.462;6.698;2022-09-12T14:09:24;5.20;;;3.20;;
67861;SDS011;54665;51.462;6.698;2022-09-12T14:11:55;5.13;;;3.30;;
67861;SDS011;54665;51.462;6.698;2022-09-12T14:16:56;5.20;;;3.80;;
67861;SDS011;54665;51.462;6.698;2022-09-12T14:19:24;4.15;;;3.13;;
67861;SDS011;54665;51.462;6.698;2022-09-12T14:21:51;5.07;;;3.30;;
67861;SDS011;54665;51.462;6.698;2022-09-12T14:24:18;5.75;;;3.20;;
67861;SDS011;54665;51.462;6.698;2022-09-12T14:26:48;5.88;;;3.20;;
67861;SDS011;54665;51.462;6.698;2022-09-12T14:29:14;5.10;;;3.30;;
67861;SDS011;54665;51.462;6.698;2022-09-12T14:31:41;4.45;;;3.50;;
67861;SDS011;54665;51.462;6.698;2022-09-12T14:34:15;4.93;;;3.35;;
67861;SDS011;54665;51.462;6.698;2022-09-12T14:39:17;5.88;;;3.00;;
67861;SDS011;54665;51.462;6.698;2022-09-12T14:41:43;4.50;;;3.23;;
67861;SDS011;54665;51.462;6.698;2022-09-12T14:44:18;4.63;;;3.28;;
67861;SDS011;54665;51.462;6.698;2022-09-12T14:46:48;4.80;;;3.25;;
67861;SDS011;54665;51.462;6.698;2022-09-12T14:51:40;4.97;;;3.30;;
67861;SDS011;54665;51.462;6.698;2022-09-12T14:56:54;5.40;;;3.63;;
67861;SDS011;54665;51.462;6.698;2022-09-12T15:04:38;4.85;;;3.30;;
67861;SDS011;54665;51.462;6.698;2022-09-12T15:09:59;5.25;;;3.33;;
67861;SDS011;54665;51.462;6.698;2022-09-12T15:12:26;6.75;;;3.58;;
67861;SDS011;54665;51.462;6.698;2022-09-12T15:14:52;5.70;;;3.70;;
67861;SDS011;54665;51.462;6.698;2022-09-12T15:17:39;6.10;;;3.55;;
67861;SDS011;54665;51.462;6.698;2022-09-12T15:20:05;4.33;;;3.30;;
67861;SDS011;54665;51.462;6.698;2022-09-12T15:22:31;5.60;;;3.30;;
67861;SDS011;54665;51.462;6.698;2022-09-12T15:24:57;3.90;;;3.10;;
67861;SDS011;54665;51.462;6.698;2022-09-12T15:27:23;5.83;;;3.40;;
67861;SDS011;54665;51.462;6.698;2022-09-12T15:29:50;5.55;;;3.25;;
67861;SDS011;54665;51.462;6.698;2022-09-12T15:32:23;5.13;;;3.45;;
67861;SDS011;54665;51.462;6.698;2022-09-12T15:34:50;4.57;;;3.40;;
67861;SDS011;54665;51.462;6.698;2022-09-12T15:37:17;5.00;;;3.33;;
67861;SDS011;54665;51.462;6.698;2022-09-12T15:39:44;4.20;;;3.20;;
67861;SDS011;54665;51.462;6.698;2022-09-12T15:42:10;4.20;;;2.92;;
67861;SDS011;54665;51.462;6.698;2022-09-12T15:44:37;5.40;;;3.28;;
67861;SDS011;54665;51.462;6.698;2022-09-12T15:47:02;5.47;;;3.50;;
67861;SDS011;54665;51.462;6.698;2022-09-12T15:49:28;5.55;;;3.08;;
67861;SDS011;54665;51.462;6.698;2022-09-12T15:51:54;4.53;;;3.40;;
67861;SDS011;54665;51.462;6.698;2022-09-12T15:54:19;4.97;;;3.10;;
67861;SDS011;54665;51.462;6.698;2022-09-12T15:56:45;4.40;;;3.15;;
67861;SDS011;54665;51.462;6.698;2022-09-12T15:59:10;4.60;;;3.30;;
67861;SDS011;54665;51.462;6.698;2022-09-12T16:01:35;5.70;;;3.40;;
67861;SDS011;54665;51.462;6.698;2022-09-12T16:04:01;6.70;;;3.10;;
67861;SDS011;54665;51.462;6.698;2022-09-12T16:06:28;4.25;;;2.78;;
67861;SDS011;54665;51.462;6.698;2022-09-12T16:08:55;5.75;;;3.55;;
67861;SDS011;54665;51.462;6.698;2022-09-12T16:11:24;4.97;;;3.60;;
67861;SDS011;54665;51.462;6.698;2022-09-12T16:13:51;4.67;;;3.00;;
67861;SDS011;54665;51.462;6.698;2022-09-12T16:16:17;3.92;;;3.22;;
67861;SDS011;54665;51.462;6.698;2022-09-12T16:18:43;4.30;;;3.40;;
67861;SDS011;54665;51.462;6.698;2022-09-12T16:21:08;4.40;;;3.40;;
67861;SDS011;54665;51.462;6.698;2022-09-12T16:23:34;4.97;;;3.00;;
67861;SDS011;54665;51.462;6.698;2022-09-12T16:26:00;4.37;;;3.10;;
67861;SDS011;54665;51.462;6.698;2022-09-12T16:28:28;4.03;;;3.10;;
67861;SDS011;54665;51.462;6.698;2022-09-12T16:30:57;4.90;;;3.22;;
67861;SDS011;54665;51.462;6.698;2022-09-12T16:33:24;6.03;;;3.30;;
67861;SDS011;54665;51.462;6.698;2022-09-12T16:35:50;4.65;;;3.30;;
67861;SDS011;54665;51.462;6.698;2022-09-12T16:38:21;5.28;;;3.45;;
67861;SDS011;54665;51.462;6.698;2022-09-12T16:40:47;4.90;;;3.30;;
67861;SDS011;54665;51.462;6.698;2022-09-12T16:43:12;6.60;;;3.30;;
67861;SDS011;54665;51.462;6.698;2022-09-12T16:45:41;5.90;;;3.40;;
67861;SDS011;54665;51.462;6.698;2022-09-12T16:48:07;4.40;;;3.10;;
67861;SDS011;54665;51.462;6.698;2022-09-12T16:50:33;4.80;;;3.00;;
67861;SDS011;54665;51.462;6.698;2022-09-12T16:52:59;4.93;;;3.00;;
67861;SDS011;54665;51.462;6.698;2022-09-12T16:55:24;4.40;;;2.97;;
67861;SDS011;54665;51.462;6.698;2022-09-12T16:57:50;4.50;;;3.17;;
67861;SDS011;54665;51.462;6.698;2022-09-12T17:00:15;3.67;;;3.07;;
67861;SDS011;54665;51.462;6.698;2022-09-12T17:02:40;3.80;;;3.08;;
67861;SDS011;54665;51.462;6.698;2022-09-12T17:05:06;4.53;;;3.00;;
67861;SDS011;54665;51.462;6.698;2022-09-12T17:07:32;5.53;;;3.10;;
67861;SDS011;54665;51.462;6.698;2022-09-12T17:09:58;5.68;;;3.47;;
67861;SDS011;54665;51.462;6.698;2022-09-12T17:12:23;4.43;;;3.10;;
67861;SDS011;54665;51.462;6.698;2022-09-12T17:14:50;4.82;;;3.20;;
67861;SDS011;54665;51.462;6.698;2022-09-12T17:17:15;4.13;;;3.35;;
67861;SDS011;54665;51.462;6.698;2022-09-12T17:19:40;5.17;;;3.33;;
67861;SDS011;54665;51.462;6.698;2022-09-12T17:22:07;5.85;;;3.20;;
67861;SDS011;54665;51.462;6.698;2022-09-12T17:24:33;5.13;;;3.20;;
67861;SDS011;54665;51.462;6.698;2022-09-12T17:26:58;5.90;;;3.10;;
67861;SDS011;54665;51.462;6.698;2022-09-12T17:29:24;5.65;;;3.17;;
67861;SDS011;54665;51.462;6.698;2022-09-12T17:31:49;5.47;;;3.27;;
67861;SDS011;54665;51.462;6.698;2022-09-12T17:34:14;3.90;;;3.17;;
67861;SDS011;54665;51.462;6.698;2022-09-12T17:36:41;5.43;;;3.30;;
67861;SDS011;54665;51.462;6.698;2022-09-12T17:39:12;6.38;;;3.30;;